Lutherville-Timonium, Maryland
Current Conditions -  °F | °C
As of 12:48 AM on Wednesday 22 Oct 2014 (Local Time) from KMTN Reporting Station
Light Rain Light Rain  
Wind Chill: 54°   Ceiling: 1600
Heat Index: 54°   Visibility: 7mi
Dew Point: 54°   Wind: 0mph
Humidity: 100%   Direction: NA
Pressure: 29.89"   Gusts: NA
Location:  39.44°N, 76.63°W
Report Text: KMTN 220448Z AUTO 00000KT 7SM -RA SCT009 BKN016 OVC023 12/12 A2989 RMK AO2 P0001 LTG DSNT NE
Loading
Personal Weather Stations






























Interactive Weather Map
Tropical Storm Tracking
New forecast layout! Learn more

10-Day Weather Forecast

Advertisements
Track Severe Weather on mobile